TimeCEST,TemperatureF,Dew PointF,Humidity,Sea Level PressureIn,VisibilityMPH,Wind Direction,Wind SpeedMPH,Gust SpeedMPH,PrecipitationIn,Events,Conditions,WindDirDegrees,DateUTC
1:55 AM,42.8,39.2,87,29.98,-9999.0,North,2.3,-,N/A,,Clear,360,2012-10-09 23:55:00
2:00 AM,43,39,80,,6,North,2.3,,,,Mostly Cloudy,0,2012-10-10 00:00:00
4:55 AM,42.8,37.4,81,29.98,-9999.0,WNW,2.3,-,N/A,,Clear,300,2012-10-10 02:55:00
5:00 AM,43,38,76,,6,WNW,2.3,,,,Mostly Cloudy,300,2012-10-10 03:00:00
5:55 AM,42.8,39.2,87,29.98,-9999.0,WNW,6.9,-,N/A,,Clear,300,2012-10-10 03:55:00
6:55 AM,42.8,37.4,81,29.98,-9999.0,NNW,4.6,-,N/A,,Clear,330,2012-10-10 04:55:00
7:55 AM,42.8,35.6,76,29.95,-9999.0,Calm,Calm,-,N/A,,Clear,0,2012-10-10 05:55:00
8:00 AM,43,36,69,,31,Calm,Calm,,,,Mostly Cloudy,,2012-10-10 06:00:00
8:55 AM,44.6,37.4,76,29.95,-9999.0,Calm,Calm,-,N/A,,Clear,0,2012-10-10 06:55:00
10:55 AM,46.4,39.2,76,29.95,6.2,ESE,6.9,-,N/A,,Scattered Clouds,120,2012-10-10 08:55:00
11:00 AM,47,40,69,,47,ESE,6.9,,,,Partly Cloudy,120,2012-10-10 09:00:00
11:55 AM,42.8,42.8,100,29.95,0.2,ESE,13.8,-,N/A,Fog,Fog,120,2012-10-10 09:55:00
12:55 PM,42.8,41.0,93,29.95,0.2,SE,13.8,-,N/A,Fog,Fog,130,2012-10-10 10:55:00
2:00 PM,46,42,81,,0,ESE,9.2,,,Fog,Heavy Fog,120,2012-10-10 12:00:00
2:55 PM,44.6,41.0,87,29.92,0.2,ESE,11.5,-,N/A,Fog,Fog,120,2012-10-10 12:55:00
3:55 PM,42.8,41.0,93,29.92,0.2,ESE,6.9,-,N/A,Fog,Fog,120,2012-10-10 13:55:00
4:55 PM,42.8,41.0,93,29.92,0.5,ESE,2.3,-,N/A,Fog-Rain,Light Rain,120,2012-10-10 14:55:00
5:00 PM,43,40,85,,0,ESE,2.3,,,Rain,Light Rain,120,2012-10-10 15:00:00
6:55 PM,42.8,39.2,87,29.92,6.2,NNW,2.3,-,N/A,,Scattered Clouds,330,2012-10-10 16:55:00
7:55 PM,41.0,39.2,93,29.92,0.2,NNW,6.9,-,N/A,Fog,Fog,330,2012-10-10 17:55:00
8:00 PM,41,39,89,,0,NNW,6.9,,,Fog,Heavy Fog,330,2012-10-10 18:00:00
10:55 PM,39.2,35.6,87,29.95,-9999.0,NNW,2.3,-,N/A,,Clear,330,2012-10-10 20:55:00
11:00 PM,40,36,82,,6,NNW,2.3,,,Fog,Light Fog,330,2012-10-10 21:00:00